Beersel, Belgium
Current Conditions -  °F | °C
As of 9:20 PM on Friday 31 Oct 2014 (Local Time) from EBBR Reporting Station
Clear Clear  
Wind Chill: 59°   Ceiling: Unl
Heat Index: 59°   Visibility: 6mi
Dew Point: 50°   Wind: 12mph
Humidity: 72%   Direction: 180°S
Pressure: 30.12"   Gusts: NA
Location:  50.77°N, 4.3°E
Report Text: EBBR 312020Z 18010KT CAVOK 15/10 Q1020 NOSIG
Loading
Personal Weather Stations






























Interactive Weather Map
Tropical Storm Tracking
New forecast layout! Learn more

10-Day Weather Forecast

Advertisements
Track Severe Weather on mobile